Time;durP1;ratioP1;P1;durP2;ratioP2;P2;SDS_P1;SDS_P2;PMS_P1;PMS_P2;Temp;Humidity;BMP_temperature;BMP_pressure;BME280_temperature;BME280_humidity;BME280_pressure;Samples;Min_cycle;Max_cycle;Signal;HPM_P1;HPM_P2
2021/01/17 00:02:25;;;;;;;45.10;19.05;;;-1.10;99.90;;;;;;10419762;28;20106;-63
2021/01/17 00:07:30;;;;;;;43.25;18.05;;;-1.10;99.90;;;;;;10376226;28;20053;-64
2021/01/17 00:12:31;;;;;;;45.78;19.10;;;-1.00;99.90;;;;;;10399088;28;20040;-64
2021/01/17 00:17:32;;;;;;;43.22;18.02;;;-1.10;99.90;;;;;;10382002;28;20045;-65
2021/01/17 00:22:34;;;;;;;50.55;18.77;;;-1.00;99.90;;;;;;10420810;28;20056;-64
2021/01/17 00:27:38;;;;;;;39.70;16.83;;;-0.90;99.90;;;;;;10379014;28;20043;-64
2021/01/17 00:32:39;;;;;;;43.92;17.70;;;-1.10;99.90;;;;;;10403922;28;20064;-64
2021/01/17 00:37:41;;;;;;;43.53;17.55;;;-1.20;99.90;;;;;;10397653;28;20036;-64
2021/01/17 00:42:48;;;;;;;40.17;17.88;;;-1.20;99.90;;;;;;10407401;28;20088;-64
2021/01/17 00:47:50;;;;;;;38.10;16.05;;;-1.10;99.90;;;;;;10418086;28;20052;-64
2021/01/17 00:52:53;;;;;;;39.85;17.70;;;-1.10;99.90;;;;;;10419069;28;20048;-65
2021/01/17 00:57:54;;;;;;;40.72;17.10;;;-1.10;99.90;;;;;;10429122;28;20064;-64
2021/01/17 01:02:55;;;;;;;45.85;17.65;;;-1.00;99.90;;;;;;10421263;28;20042;-65
2021/01/17 01:07:59;;;;;;;43.28;17.20;;;-1.00;99.90;;;;;;10372950;28;20049;-65
2021/01/17 01:13:00;;;;;;;43.90;17.65;;;-1.10;99.90;;;;;;10382961;28;20495;-65
2021/01/17 01:18:01;;;;;;;34.28;15.20;;;-1.00;99.90;;;;;;10366365;28;20054;-65
2021/01/17 01:23:03;;;;;;;39.38;16.15;;;-1.20;99.90;;;;;;10385788;28;20103;-65
2021/01/17 01:28:04;;;;;;;43.33;17.77;;;-1.20;99.90;;;;;;10414512;28;20037;-64
2021/01/17 01:33:05;;;;;;;40.92;16.10;;;-1.10;99.90;;;;;;10379641;28;20113;-64
2021/01/17 01:38:09;;;;;;;43.47;17.50;;;-1.30;99.90;;;;;;10383601;28;20478;-64
2021/01/17 01:43:10;;;;;;;42.83;17.33;;;-1.30;99.90;;;;;;10369696;28;20049;-64
2021/01/17 01:48:11;;;;;;;38.05;16.33;;;-1.20;99.90;;;;;;10379901;28;20041;-64
2021/01/17 01:53:14;;;;;;;44.85;17.17;;;-1.30;99.90;;;;;;10403367;28;20055;-64
2021/01/17 01:58:20;;;;;;;36.97;16.38;;;-1.40;99.90;;;;;;10380402;28;20061;-64
2021/01/17 02:03:22;;;;;;;42.28;17.88;;;-1.40;99.90;;;;;;10374947;28;20057;-62
2021/01/17 02:08:42;;;;;;;41.80;17.23;;;-1.20;99.90;;;;;;10365191;28;20487;-62
2021/01/17 02:13:53;;;;;;;42.17;15.75;;;-1.20;99.90;;;;;;10319068;28;20048;-62
2021/01/17 02:18:55;;;;;;;39.15;16.77;;;-1.30;99.90;;;;;;10388593;28;20052;-63
2021/01/17 02:24:03;;;;;;;40.58;16.13;;;-1.30;99.90;;;;;;10401559;28;20049;-63
2021/01/17 02:29:07;;;;;;;40.97;16.33;;;-1.40;99.90;;;;;;10407186;28;20046;-63
2021/01/17 02:34:10;;;;;;;40.92;16.05;;;-1.30;99.90;;;;;;10374428;28;20052;-63
2021/01/17 02:39:22;;;;;;;40.97;16.13;;;-1.40;99.90;;;;;;10385115;28;20574;-63
2021/01/17 02:44:27;;;;;;;41.05;16.25;;;-1.40;99.90;;;;;;10398146;28;20056;-63
2021/01/17 02:49:30;;;;;;;39.00;15.73;;;-1.40;99.90;;;;;;10380827;28;20056;-63
2021/01/17 02:54:33;;;;;;;43.97;15.65;;;-1.50;99.90;;;;;;10413673;28;20049;-63
2021/01/17 02:59:49;;;;;;;38.22;16.55;;;-1.40;99.90;;;;;;10381877;28;20044;-62
2021/01/17 03:04:56;;;;;;;42.55;16.67;;;-1.50;99.90;;;;;;10395924;28;20041;-63
2021/01/17 03:09:57;;;;;;;42.92;17.10;;;-1.50;99.90;;;;;;10400814;28;20060;-63
2021/01/17 03:15:02;;;;;;;42.70;16.88;;;-1.40;99.90;;;;;;10408007;28;20432;-63
2021/01/17 03:20:05;;;;;;;39.75;16.05;;;-1.50;99.90;;;;;;10378870;28;20107;-63
2021/01/17 03:25:06;;;;;;;41.15;16.75;;;-1.40;99.90;;;;;;10397619;28;20103;-63
2021/01/17 03:30:08;;;;;;;44.00;17.70;;;-1.50;99.90;;;;;;10420107;28;20053;-63
2021/01/17 03:35:10;;;;;;;44.75;17.75;;;-1.50;99.90;;;;;;10418923;28;20045;-63
2021/01/17 03:40:12;;;;;;;42.83;17.15;;;-1.50;99.90;;;;;;10416996;28;20118;-63
2021/01/17 03:45:13;;;;;;;44.15;19.20;;;-1.40;99.90;;;;;;10418329;28;20052;-63
2021/01/17 03:50:15;;;;;;;47.08;18.08;;;-1.40;99.90;;;;;;10394381;28;20467;-63
2021/01/17 03:55:16;;;;;;;45.67;18.42;;;-1.30;99.90;;;;;;10388867;28;20178;-63
2021/01/17 04:00:17;;;;;;;40.90;17.05;;;-1.40;99.90;;;;;;10385924;28;20049;-63
2021/01/17 04:05:19;;;;;;;47.47;18.20;;;-1.40;99.90;;;;;;10417200;28;20067;-63
2021/01/17 04:10:20;;;;;;;44.60;18.02;;;-1.40;99.90;;;;;;10410747;28;20053;-62
2021/01/17 04:15:21;;;;;;;51.05;17.33;;;-1.40;99.90;;;;;;10411037;28;20052;-62
2021/01/17 04:20:22;;;;;;;43.13;16.48;;;-1.40;99.90;;;;;;10378168;28;20061;-63
2021/01/17 04:25:24;;;;;;;43.25;17.23;;;-1.40;99.90;;;;;;10388250;28;20519;-63
2021/01/17 04:30:30;;;;;;;43.92;17.38;;;-1.30;99.90;;;;;;10412434;28;20458;-63
2021/01/17 04:35:31;;;;;;;49.17;19.00;;;-1.30;99.90;;;;;;10377614;28;20100;-63
2021/01/17 04:40:33;;;;;;;45.15;18.35;;;-1.30;99.90;;;;;;10406139;28;20131;-63
2021/01/17 04:45:36;;;;;;;48.45;17.48;;;-1.20;99.90;;;;;;10395063;28;20109;-63
2021/01/17 04:50:39;;;;;;;48.42;17.10;;;-1.10;99.90;;;;;;10410382;28;20049;-64
2021/01/17 04:55:41;;;;;;;48.92;18.50;;;-1.00;99.90;;;;;;10389144;28;20081;-63
2021/01/17 05:00:51;;;;;;;40.15;17.25;;;-1.10;99.90;;;;;;10385052;28;20384;-63
2021/01/17 05:06:15;;;;;;;44.63;17.23;;;-1.00;99.90;;;;;;10385114;28;20064;-62
2021/01/17 05:11:39;;;;;;;44.25;17.27;;;-1.10;99.90;;;;;;10318039;28;20049;-63
2021/01/17 05:16:43;;;;;;;41.92;16.08;;;-1.20;99.90;;;;;;10333587;28;20047;-63
2021/01/17 05:21:50;;;;;;;44.63;18.25;;;-1.30;99.90;;;;;;10400290;28;20065;-63
2021/01/17 05:26:56;;;;;;;46.63;17.85;;;-1.30;99.90;;;;;;10390729;28;20088;-63
2021/01/17 05:32:01;;;;;;;43.53;17.58;;;-1.30;99.90;;;;;;10383511;28;20045;-63
2021/01/17 05:37:15;;;;;;;45.17;15.98;;;-1.40;99.90;;;;;;10367222;28;20045;-62
2021/01/17 05:42:16;;;;;;;44.75;18.65;;;-1.30;99.90;;;;;;10368406;28;20053;-62
2021/01/17 05:47:22;;;;;;;49.38;17.60;;;-1.30;99.90;;;;;;10385537;28;20049;-62
2021/01/17 05:52:23;;;;;;;48.08;19.17;;;-1.30;99.90;;;;;;10397991;28;20057;-63
2021/01/17 05:57:26;;;;;;;54.50;18.73;;;-1.30;99.90;;;;;;10402096;28;20044;-63
2021/01/17 06:02:28;;;;;;;46.08;17.30;;;-1.20;99.90;;;;;;10415735;28;20079;-62
2021/01/17 06:07:32;;;;;;;55.25;19.67;;;-1.20;99.90;;;;;;10386937;28;20064;-63
2021/01/17 06:12:35;;;;;;;43.47;16.02;;;-1.20;99.90;;;;;;10414419;28;20045;-62
2021/01/17 06:17:39;;;;;;;42.15;16.67;;;-1.30;99.90;;;;;;10399402;28;20159;-62
2021/01/17 06:22:41;;;;;;;50.70;18.65;;;-1.30;99.90;;;;;;10399447;28;20476;-62
2021/01/17 06:27:42;;;;;;;46.45;19.38;;;-1.20;99.90;;;;;;10402656;28;20580;-62
2021/01/17 06:32:46;;;;;;;51.55;19.45;;;-1.10;99.90;;;;;;10415849;28;20049;-62
2021/01/17 06:37:47;;;;;;;55.40;20.48;;;-1.10;99.90;;;;;;10414153;28;20054;-62
2021/01/17 06:42:57;;;;;;;49.67;18.27;;;-1.10;99.90;;;;;;10376803;28;20058;-62
2021/01/17 06:47:58;;;;;;;51.72;19.05;;;-1.00;99.90;;;;;;10391250;28;20084;-62
2021/01/17 06:53:00;;;;;;;54.00;19.67;;;-1.00;99.90;;;;;;10391989;28;20049;-62
2021/01/17 06:58:01;;;;;;;42.15;16.98;;;-0.80;99.90;;;;;;10387962;28;20050;-62
2021/01/17 07:03:15;;;;;;;39.42;17.92;;;-0.70;99.90;;;;;;10390203;28;21356;-62
2021/01/17 07:08:36;;;;;;;37.00;15.82;;;-0.90;99.90;;;;;;10380847;28;20133;-62
2021/01/17 07:13:42;;;;;;;42.97;16.17;;;-1.00;99.90;;;;;;10364254;28;20044;-63
2021/01/17 07:18:50;;;;;;;40.28;15.93;;;-1.10;99.90;;;;;;10417359;28;20450;-63
2021/01/17 07:23:56;;;;;;;41.45;16.35;;;-1.10;99.90;;;;;;10380426;28;20115;-63
2021/01/17 07:29:03;;;;;;;40.20;15.27;;;-1.00;99.90;;;;;;10385908;28;20057;-63
2021/01/17 07:34:11;;;;;;;41.73;16.47;;;-0.90;99.90;;;;;;10417055;28;20048;-63
2021/01/17 07:39:16;;;;;;;40.65;15.45;;;-1.00;99.90;;;;;;10417447;28;20045;-65
2021/01/17 07:44:19;;;;;;;42.30;17.10;;;-1.00;99.90;;;;;;10408440;28;20053;-64
2021/01/17 07:49:21;;;;;;;43.88;16.08;;;-0.90;99.90;;;;;;10410632;28;20130;-65
2021/01/17 07:54:29;;;;;;;45.92;16.80;;;-0.90;99.90;;;;;;10414579;28;20083;-65
2021/01/17 07:59:30;;;;;;;47.90;16.85;;;-0.90;99.90;;;;;;10393337;28;20091;-64
2021/01/17 08:04:31;;;;;;;40.90;15.73;;;-0.80;99.90;;;;;;10398361;28;20049;-64
2021/01/17 08:09:42;;;;;;;40.70;16.25;;;-0.90;99.90;;;;;;10378625;28;20041;-64
2021/01/17 08:14:44;;;;;;;47.00;17.45;;;-0.90;99.90;;;;;;10381805;28;20060;-64
2021/01/17 08:20:00;;;;;;;42.05;17.58;;;-0.60;99.90;;;;;;10382740;28;20078;-64
2021/01/17 08:25:06;;;;;;;39.28;14.63;;;-0.60;99.90;;;;;;10374807;28;20041;-64
2021/01/17 08:30:13;;;;;;;37.15;14.70;;;-0.50;99.90;;;;;;10387039;28;20471;-64
2021/01/17 08:35:23;;;;;;;;;;;-0.60;99.90;;;;;;10376850;28;20050;-64
2021/01/17 08:40:27;;;;;;;44.05;17.35;;;-0.70;99.90;;;;;;10375711;28;19928;-65
2021/01/17 08:45:28;;;;;;;41.30;18.00;;;-0.50;99.90;;;;;;10400591;28;20096;-64
2021/01/17 08:50:33;;;;;;;36.67;15.77;;;-0.60;99.90;;;;;;10406615;28;20506;-64
2021/01/17 08:55:42;;;;;;;41.17;17.65;;;-0.60;99.90;;;;;;10374104;28;20073;-64
2021/01/17 09:00:49;;;;;;;44.35;17.48;;;-0.60;99.90;;;;;;10376213;28;20045;-64
2021/01/17 09:05:51;;;;;;;43.85;17.35;;;-0.50;99.90;;;;;;10380656;28;20143;-65
2021/01/17 09:10:54;;;;;;;46.95;16.95;;;-0.50;99.90;;;;;;10400282;28;20095;-64
2021/01/17 09:16:00;;;;;;;38.30;14.98;;;-0.50;99.90;;;;;;10404057;28;20045;-64
2021/01/17 09:21:03;;;;;;;42.97;16.83;;;-0.40;99.90;;;;;;10399305;28;20033;-64
2021/01/17 09:26:05;;;;;;;39.30;16.15;;;-0.30;99.90;;;;;;10409827;28;20128;-65
2021/01/17 09:31:07;;;;;;;39.60;16.42;;;-0.20;99.90;;;;;;10417103;28;20611;-65
2021/01/17 09:36:11;;;;;;;34.25;14.68;;;-0.20;99.90;;;;;;10414470;28;20425;-65
2021/01/17 09:41:21;;;;;;;41.63;16.90;;;-0.30;99.90;;;;;;10415238;28;20505;-65
2021/01/17 09:46:24;;;;;;;36.03;15.85;;;0.10;99.90;;;;;;10412255;28;20041;-64
2021/01/17 09:51:28;;;;;;;38.17;14.90;;;0.20;99.90;;;;;;10387566;28;20037;-63
2021/01/17 09:56:30;;;;;;;37.78;16.45;;;0.00;99.90;;;;;;10374237;28;20058;-65
2021/01/17 10:01:34;;;;;;;36.47;16.27;;;0.10;99.90;;;;;;10400945;28;20053;-65
2021/01/17 10:06:39;;;;;;;;;;;0.30;99.90;;;;;;10387819;28;20134;-66
2021/01/17 10:11:40;;;;;;;34.03;14.35;;;0.00;99.90;;;;;;10403860;28;20024;-65
2021/01/17 10:16:49;;;;;;;39.28;13.90;;;0.10;99.90;;;;;;10412148;28;20045;-64
2021/01/17 10:21:50;;;;;;;40.33;16.00;;;0.10;99.90;;;;;;10404178;28;20124;-64
2021/01/17 10:26:53;;;;;;;40.65;15.93;;;0.10;99.90;;;;;;10376369;28;20064;-64
2021/01/17 10:32:04;;;;;;;42.28;17.48;;;0.20;99.90;;;;;;10377336;28;20052;-64
2021/01/17 10:37:08;;;;;;;43.33;18.70;;;0.40;99.90;;;;;;10365613;28;20061;-64
2021/01/17 10:42:32;;;;;;;39.88;17.70;;;0.40;99.90;;;;;;10389371;28;20507;-64
2021/01/17 10:47:43;;;;;;;39.53;16.42;;;0.40;99.90;;;;;;10391599;28;20049;-65
2021/01/17 10:53:02;;;;;;;44.95;17.70;;;0.80;99.90;;;;;;10387224;28;20471;-64
2021/01/17 10:58:04;;;;;;;43.13;19.88;;;0.60;99.90;;;;;;10422962;28;20044;-64
2021/01/17 11:03:08;;;;;;;46.88;18.60;;;0.80;99.90;;;;;;10422961;28;20600;-64
2021/01/17 11:08:11;;;;;;;41.75;17.48;;;0.60;99.90;;;;;;10404701;28;20049;-65
2021/01/17 11:13:16;;;;;;;45.88;18.17;;;0.40;99.90;;;;;;10380483;28;20057;-64
2021/01/17 11:18:21;;;;;;;44.03;18.83;;;0.40;99.90;;;;;;10383324;28;20057;-64
2021/01/17 11:23:24;;;;;;;39.38;17.08;;;0.30;99.90;;;;;;10401708;28;20494;-63
2021/01/17 11:28:28;;;;;;;47.22;19.83;;;0.40;99.90;;;;;;10429677;28;20056;-62
2021/01/17 11:33:30;;;;;;;40.55;18.02;;;0.50;99.90;;;;;;10414255;28;20546;-63
2021/01/17 11:38:47;;;;;;;43.17;20.65;;;0.70;99.90;;;;;;10424431;28;20056;-64
2021/01/17 11:43:48;;;;;;;42.50;19.02;;;0.60;99.90;;;;;;10442114;28;20147;-66
2021/01/17 11:48:55;;;;;;;43.45;18.73;;;0.60;99.90;;;;;;10407339;28;20199;-66
2021/01/17 11:54:08;;;;;;;40.17;18.33;;;0.60;99.90;;;;;;10428454;28;20051;-65
2021/01/17 11:59:09;;;;;;;42.65;18.85;;;0.70;99.90;;;;;;10363834;28;20110;-65
2021/01/17 12:04:12;;;;;;;43.03;20.35;;;0.90;99.90;;;;;;10416717;28;20041;-66
2021/01/17 12:09:18;;;;;;;39.22;18.48;;;1.20;99.90;;;;;;10424051;28;20079;-66
2021/01/17 12:14:25;;;;;;;37.65;16.13;;;1.10;99.90;;;;;;10429504;28;20053;-64
2021/01/17 12:19:27;;;;;;;37.57;16.30;;;1.20;99.90;;;;;;10439607;28;20048;-64
2021/01/17 12:24:29;;;;;;;40.35;16.92;;;1.30;99.90;;;;;;10430866;28;20047;-64
2021/01/17 12:29:31;;;;;;;37.15;16.77;;;1.40;99.90;;;;;;10440246;28;20052;-65
2021/01/17 12:34:32;;;;;;;47.50;18.52;;;1.40;99.90;;;;;;10440985;28;20106;-65
2021/01/17 12:39:33;;;;;;;43.17;19.00;;;1.20;99.90;;;;;;10428302;28;20045;-64
2021/01/17 12:44:34;;;;;;;40.20;19.77;;;1.10;99.90;;;;;;10426941;28;20040;-64
2021/01/17 12:49:37;;;;;;;43.25;17.02;;;1.20;99.90;;;;;;10443619;28;20555;-64
2021/01/17 12:54:38;;;;;;;41.03;20.05;;;1.30;99.90;;;;;;10439189;28;20051;-64
2021/01/17 12:59:40;;;;;;;39.78;17.13;;;1.40;99.90;;;;;;10438360;28;20459;-65
2021/01/17 13:04:41;;;;;;;38.85;18.65;;;1.80;99.90;;;;;;10439870;28;20075;-64
2021/01/17 13:09:42;;;;;;;41.97;19.17;;;1.90;99.90;;;;;;10436741;28;20053;-64
2021/01/17 13:14:43;;;;;;;42.92;19.92;;;2.00;99.90;;;;;;10437831;28;20471;-64
2021/01/17 13:19:44;;;;;;;45.58;19.55;;;2.10;99.90;;;;;;10440788;28;20049;-65
2021/01/17 13:24:45;;;;;;;40.47;19.30;;;2.00;99.90;;;;;;10433910;28;20056;-65
2021/01/17 13:29:48;;;;;;;41.63;18.85;;;1.90;99.90;;;;;;10440114;28;20769;-66
2021/01/17 13:34:49;;;;;;;43.15;19.77;;;1.70;99.90;;;;;;10436854;28;20487;-65
2021/01/17 13:39:51;;;;;;;40.63;19.10;;;1.70;99.90;;;;;;10441915;28;20048;-64
2021/01/17 13:44:52;;;;;;;41.47;19.98;;;1.00;99.90;;;;;;10432945;28;20688;-66
2021/01/17 13:49:56;;;;;;;45.05;20.88;;;1.20;99.90;;;;;;10428267;28;20048;-66
2021/01/17 13:54:58;;;;;;;42.78;18.60;;;1.30;99.90;;;;;;10409891;28;20041;-64
2021/01/17 13:59:59;;;;;;;48.80;20.67;;;1.20;99.90;;;;;;10425255;28;20049;-63
2021/01/17 14:05:01;;;;;;;42.97;19.27;;;1.30;99.90;;;;;;10433640;28;20114;-64
2021/01/17 14:10:05;;;;;;;41.38;19.20;;;0.90;99.90;;;;;;10407727;28;23708;-65
2021/01/17 14:15:07;;;;;;;40.72;18.65;;;1.10;99.90;;;;;;10437165;28;20090;-63
2021/01/17 14:20:09;;;;;;;46.10;20.73;;;0.90;99.90;;;;;;10447094;28;20567;-64
2021/01/17 14:25:10;;;;;;;45.70;20.58;;;0.90;99.90;;;;;;10441656;28;20123;-64
2021/01/17 14:30:12;;;;;;;50.70;21.85;;;0.80;99.90;;;;;;10423703;28;20048;-64
2021/01/17 14:35:14;;;;;;;49.53;21.30;;;0.70;99.90;;;;;;10410009;28;20430;-63
2021/01/17 14:40:15;;;;;;;47.00;20.52;;;0.80;99.90;;;;;;10406333;28;20045;-64
2021/01/17 14:45:16;;;;;;;47.33;20.67;;;0.90;99.90;;;;;;10423291;28;20048;-62
2021/01/17 14:50:18;;;;;;;46.05;18.73;;;0.80;99.90;;;;;;10441351;28;20044;-63
2021/01/17 14:55:21;;;;;;;48.35;19.75;;;0.70;99.90;;;;;;10434489;28;20061;-62
2021/01/17 15:00:23;;;;;;;47.85;20.50;;;0.70;99.90;;;;;;10446016;28;20934;-63
2021/01/17 15:05:25;;;;;;;41.20;18.98;;;0.60;99.90;;;;;;10438296;28;20041;-63
2021/01/17 15:10:26;;;;;;;48.65;21.35;;;0.50;99.90;;;;;;10444360;28;20106;-64
2021/01/17 15:15:27;;;;;;;48.30;20.75;;;0.50;99.90;;;;;;10430968;28;20045;-64
2021/01/17 15:20:29;;;;;;;52.20;21.55;;;0.50;99.90;;;;;;10435512;28;20068;-64
2021/01/17 15:25:30;;;;;;;48.85;21.00;;;0.50;99.90;;;;;;10412956;28;20356;-64
2021/01/17 15:30:31;;;;;;;53.78;22.02;;;0.60;99.90;;;;;;10432031;28;20049;-65
2021/01/17 15:35:32;;;;;;;57.10;22.05;;;0.50;99.90;;;;;;10404629;28;20079;-64
2021/01/17 15:40:34;;;;;;;59.00;22.95;;;0.60;99.90;;;;;;10408005;28;20048;-64
2021/01/17 15:45:35;;;;;;;50.60;21.98;;;0.60;99.90;;;;;;10403756;28;20107;-65
2021/01/17 15:50:37;;;;;;;59.35;23.73;;;0.60;99.90;;;;;;10397746;28;20049;-59
2021/01/17 15:55:38;;;;;;;55.40;22.92;;;0.60;99.90;;;;;;10413603;28;20053;-65
2021/01/17 16:00:39;;;;;;;52.95;21.42;;;0.50;99.90;;;;;;10395361;28;20138;-66
2021/01/17 16:05:41;;;;;;;55.55;23.55;;;0.60;99.90;;;;;;10405879;28;20388;-66
2021/01/17 16:10:42;;;;;;;56.53;22.50;;;0.80;99.90;;;;;;10440795;28;20387;-65
2021/01/17 16:15:44;;;;;;;63.78;24.10;;;0.80;99.90;;;;;;10388495;28;20057;-65
2021/01/17 16:20:49;;;;;;;54.33;22.20;;;0.80;99.90;;;;;;10427290;28;20049;-65
2021/01/17 16:25:50;;;;;;;62.38;22.27;;;0.90;99.90;;;;;;10347362;28;20357;-65
2021/01/17 16:30:54;;;;;;;55.30;22.73;;;0.90;99.90;;;;;;10398843;28;20048;-66
2021/01/17 16:35:56;;;;;;;57.72;22.48;;;0.90;99.90;;;;;;10430220;28;20724;-66
2021/01/17 16:40:57;;;;;;;55.00;22.75;;;0.90;99.90;;;;;;10419968;28;20439;-66
2021/01/17 16:45:58;;;;;;;45.90;22.15;;;0.90;99.90;;;;;;10436579;28;20434;-65
2021/01/17 16:51:00;;;;;;;59.17;23.17;;;0.70;99.90;;;;;;10415271;28;20133;-65
2021/01/17 16:56:01;;;;;;;53.60;21.42;;;0.70;99.90;;;;;;10427043;28;20049;-65
2021/01/17 17:01:02;;;;;;;50.00;21.73;;;0.70;99.90;;;;;;10408014;28;20139;-65
2021/01/17 17:06:03;;;;;;;56.03;22.05;;;0.60;99.90;;;;;;10378608;28;20061;-66
2021/01/17 17:11:05;;;;;;;52.42;23.05;;;0.60;99.90;;;;;;10416237;28;20045;-65
2021/01/17 17:16:06;;;;;;;47.00;20.55;;;0.60;99.90;;;;;;10435483;28;20045;-65
2021/01/17 17:21:07;;;;;;;58.05;22.92;;;0.60;99.90;;;;;;10436374;28;20045;-66
2021/01/17 17:26:17;;;;;;;51.03;22.33;;;0.70;99.90;;;;;;10434578;28;20522;-67
2021/01/17 17:31:19;;;;;;;50.58;22.23;;;0.70;99.90;;;;;;10440806;28;20056;-67
2021/01/17 17:36:22;;;;;;;54.17;22.90;;;0.70;99.90;;;;;;10431718;28;20055;-67
2021/01/17 17:41:23;;;;;;;52.58;22.60;;;0.70;99.90;;;;;;10433470;28;20479;-67
2021/01/17 17:46:25;;;;;;;51.25;22.92;;;0.70;99.90;;;;;;10399755;28;20392;-67
2021/01/17 17:51:27;;;;;;;58.97;24.15;;;0.60;99.90;;;;;;10397284;28;20057;-67
2021/01/17 17:56:28;;;;;;;55.50;22.08;;;0.70;99.90;;;;;;10396295;28;20652;-67
2021/01/17 18:01:40;;;;;;;55.88;20.52;;;0.60;99.90;;;;;;10397014;28;20046;-66
2021/01/17 18:06:41;;;;;;;52.95;21.00;;;0.70;99.90;;;;;;10398156;28;20052;-66
2021/01/17 18:11:43;;;;;;;52.35;21.27;;;0.70;99.90;;;;;;10416680;28;20044;-66
2021/01/17 18:16:50;;;;;;;56.28;22.90;;;0.80;99.90;;;;;;10424854;28;20094;-66
2021/01/17 18:21:51;;;;;;;54.63;22.10;;;0.80;99.90;;;;;;10432144;28;20069;-67
2021/01/17 18:26:53;;;;;;;45.33;19.77;;;0.80;99.90;;;;;;10397549;28;20053;-68
2021/01/17 18:31:55;;;;;;;51.10;21.40;;;0.80;99.90;;;;;;10353818;28;20049;-67
2021/01/17 18:36:56;;;;;;;55.50;21.52;;;0.80;99.90;;;;;;10370206;28;20049;-68
2021/01/17 18:41:58;;;;;;;52.60;19.88;;;0.80;99.90;;;;;;10384599;28;20050;-67
2021/01/17 18:46:59;;;;;;;51.15;20.60;;;0.90;99.90;;;;;;10373679;28;20045;-67
2021/01/17 18:52:01;;;;;;;49.88;20.92;;;0.80;99.90;;;;;;10389635;28;20049;-67
2021/01/17 18:57:02;;;;;;;53.63;22.02;;;0.90;99.90;;;;;;10352991;28;20053;-67
2021/01/17 19:02:03;;;;;;;58.55;22.67;;;0.90;99.90;;;;;;10387687;28;20045;-69
2021/01/17 19:07:05;;;;;;;55.13;22.88;;;1.00;99.90;;;;;;10384172;28;20047;-68
2021/01/17 19:12:07;;;;;;;59.72;23.50;;;1.00;99.90;;;;;;10361188;28;20117;-67
2021/01/17 19:17:11;;;;;;;56.45;22.33;;;1.00;99.90;;;;;;10387817;28;20049;-68
2021/01/17 19:22:13;;;;;;;62.03;23.45;;;1.10;99.90;;;;;;10378142;28;20099;-69
2021/01/17 19:27:14;;;;;;;56.80;21.40;;;0.90;99.90;;;;;;10373838;28;20078;-67
2021/01/17 19:32:15;;;;;;;57.38;22.42;;;1.00;99.90;;;;;;10381057;28;20054;-69
2021/01/17 19:37:17;;;;;;;50.20;21.10;;;1.00;99.90;;;;;;10387412;28;20041;-68
2021/01/17 19:42:18;;;;;;;54.22;22.38;;;1.00;99.90;;;;;;10365442;28;20045;-68
2021/01/17 19:47:19;;;;;;;55.20;23.35;;;1.00;99.90;;;;;;10381289;28;20058;-68
2021/01/17 19:52:21;;;;;;;58.38;23.13;;;1.00;99.90;;;;;;10369799;28;20108;-68
2021/01/17 19:57:23;;;;;;;57.15;23.38;;;1.00;99.90;;;;;;10389859;28;20045;-66
2021/01/17 20:02:24;;;;;;;66.25;24.35;;;1.10;99.90;;;;;;10384222;28;20049;-68
2021/01/17 20:07:26;;;;;;;60.72;23.85;;;1.00;99.90;;;;;;10398954;28;20125;-69
2021/01/17 20:12:27;;;;;;;62.55;23.30;;;1.10;99.90;;;;;;10405291;28;20500;-68
2021/01/17 20:17:28;;;;;;;59.63;22.48;;;1.00;99.90;;;;;;10398173;28;20049;-67
2021/01/17 20:22:29;;;;;;;57.70;23.85;;;1.10;99.90;;;;;;10390404;28;20150;-68
2021/01/17 20:27:35;;;;;;;58.00;22.02;;;1.00;99.90;;;;;;10391819;28;20111;-68
2021/01/17 20:32:36;;;;;;;61.75;23.42;;;1.10;99.90;;;;;;10394658;28;20050;-68
2021/01/17 20:37:37;;;;;;;63.78;22.92;;;1.00;99.90;;;;;;10364354;28;20595;-67
2021/01/17 20:42:39;;;;;;;56.65;22.35;;;1.10;99.90;;;;;;10401148;28;20087;-68
2021/01/17 20:47:41;;;;;;;57.63;20.98;;;1.10;99.90;;;;;;10403061;28;20049;-67
2021/01/17 20:52:43;;;;;;;53.83;22.55;;;1.10;99.90;;;;;;10407749;28;20056;-68
2021/01/17 20:57:44;;;;;;;56.38;21.80;;;1.10;99.90;;;;;;10399919;28;20492;-68
2021/01/17 21:02:45;;;;;;;58.92;22.77;;;1.20;99.90;;;;;;10411976;28;20114;-68
2021/01/17 21:07:46;;;;;;;66.32;23.20;;;1.00;99.90;;;;;;10401716;28;20061;-68
2021/01/17 21:12:48;;;;;;;58.08;23.08;;;1.00;99.90;;;;;;10391269;28;20083;-68
2021/01/17 21:17:49;;;;;;;71.05;25.30;;;0.90;99.90;;;;;;10394587;28;20057;-68
2021/01/17 21:23:05;;;;;;;63.20;22.98;;;0.90;99.90;;;;;;10309405;28;20054;-68
2021/01/17 21:28:07;;;;;;;62.80;26.20;;;1.00;99.90;;;;;;10361362;28;20152;-68
2021/01/17 21:33:08;;;;;;;56.03;21.73;;;1.00;99.90;;;;;;10359419;28;20129;-69
2021/01/17 21:38:09;;;;;;;65.28;24.08;;;1.00;99.90;;;;;;10366922;28;20083;-69
2021/01/17 21:43:11;;;;;;;53.83;22.67;;;1.10;99.90;;;;;;10351292;28;20137;-68
2021/01/17 21:48:12;;;;;;;64.15;24.40;;;1.10;99.90;;;;;;10380189;28;20053;-69
2021/01/17 21:53:13;;;;;;;59.42;23.52;;;1.20;99.90;;;;;;10388691;28;20052;-68
2021/01/17 21:58:14;;;;;;;55.05;20.77;;;1.20;99.90;;;;;;10401682;28;20443;-68
2021/01/17 22:03:15;;;;;;;59.65;21.63;;;1.10;99.90;;;;;;10408547;28;20053;-68
2021/01/17 22:08:17;;;;;;;54.15;23.58;;;1.20;99.90;;;;;;10404715;28;20049;-68
2021/01/17 22:13:18;;;;;;;61.50;23.70;;;1.20;99.90;;;;;;10388369;28;20049;-67
2021/01/17 22:18:20;;;;;;;57.97;23.77;;;1.20;99.90;;;;;;10369482;28;20458;-67
2021/01/17 22:23:21;;;;;;;54.60;22.38;;;1.10;99.90;;;;;;10371604;28;20056;-67
2021/01/17 22:28:22;;;;;;;55.90;22.77;;;1.20;99.90;;;;;;10381218;28;20049;-67
2021/01/17 22:33:24;;;;;;;53.67;20.63;;;1.30;99.90;;;;;;10375883;28;20180;-67
2021/01/17 22:38:25;;;;;;;51.97;20.38;;;1.40;99.90;;;;;;10380449;28;20053;-67
2021/01/17 22:43:26;;;;;;;57.40;21.80;;;1.50;99.90;;;;;;10381706;28;20053;-67
2021/01/17 22:48:27;;;;;;;47.67;19.65;;;1.50;99.90;;;;;;10380143;28;20104;-67
2021/01/17 22:53:29;;;;;;;58.08;21.98;;;1.50;99.90;;;;;;10379744;28;20541;-67
2021/01/17 22:58:30;;;;;;;50.08;20.02;;;1.50;99.90;;;;;;10376636;28;20053;-67
2021/01/17 23:03:32;;;;;;;49.33;20.75;;;1.50;99.90;;;;;;10373498;28;20053;-67
2021/01/17 23:08:33;;;;;;;49.38;19.35;;;1.40;99.90;;;;;;10377188;28;20049;-67
2021/01/17 23:13:35;;;;;;;48.67;19.55;;;1.40;99.90;;;;;;10371385;28;20138;-67
2021/01/17 23:18:37;;;;;;;51.25;18.92;;;1.40;99.90;;;;;;10379831;28;20515;-67
2021/01/17 23:23:38;;;;;;;52.15;21.45;;;1.40;99.90;;;;;;10376810;28;20515;-67
2021/01/17 23:28:40;;;;;;;48.03;19.38;;;1.40;99.90;;;;;;10372915;28;20049;-67
2021/01/17 23:33:41;;;;;;;50.67;20.52;;;1.40;99.90;;;;;;10376626;28;20138;-67
2021/01/17 23:38:42;;;;;;;51.13;18.85;;;1.50;99.90;;;;;;10372402;28;20123;-68
2021/01/17 23:43:43;;;;;;;50.17;18.42;;;1.50;99.90;;;;;;10372401;28;20561;-67
2021/01/17 23:48:44;;;;;;;53.65;19.75;;;1.50;99.90;;;;;;10373916;28;20056;-67
2021/01/17 23:53:46;;;;;;;47.03;19.88;;;1.50;99.90;;;;;;10375074;28;20072;-67
2021/01/17 23:58:47;;;;;;;50.30;19.60;;;1.50;99.90;;;;;;10378907;28;20040;-67
